createdAt,value
2019-01-17T00:01:11.232Z,0.40
2019-01-17T00:04:08.465Z,0.20
2019-01-17T00:06:49.777Z,0.10
2019-01-17T00:09:40.521Z,0.00
2019-01-17T00:12:34.256Z,-0.10
2019-01-17T00:15:28.111Z,-0.20
2019-01-17T00:18:14.856Z,-0.30
2019-01-17T00:21:05.229Z,-0.30
2019-01-17T00:23:52.205Z,-0.30
2019-01-17T00:26:31.290Z,-0.30
2019-01-17T00:29:11.005Z,-0.30
2019-01-17T00:31:50.767Z,-0.30
2019-01-17T00:34:38.705Z,-0.40
2019-01-17T00:37:25.608Z,-0.40
2019-01-17T00:40:12.644Z,-0.40
2019-01-17T00:42:59.761Z,-0.30
2019-01-17T00:45:53.577Z,-0.20
2019-01-17T00:48:31.411Z,0.00
2019-01-17T00:51:15.605Z,0.20
2019-01-17T00:54:02.152Z,0.30
2019-01-17T00:56:43.348Z,0.60
2019-01-17T00:59:28.001Z,0.70
2019-01-17T01:02:15.932Z,1.00
2019-01-17T01:05:00.398Z,1.50
2019-01-17T01:07:47.213Z,2.20
2019-01-17T01:10:32.380Z,2.20
2019-01-17T01:13:19.181Z,2.20
2019-01-17T01:16:19.579Z,2.20
2019-01-17T01:19:02.857Z,2.20
2019-01-17T01:21:55.626Z,2.30
2019-01-17T01:24:42.578Z,2.60
2019-01-17T01:27:20.319Z,2.90
2019-01-17T01:30:03.500Z,3.40
2019-01-17T01:32:45.745Z,3.70
2019-01-17T01:35:32.341Z,4.10
2019-01-17T01:38:35.741Z,4.40
2019-01-17T01:41:28.388Z,4.70
2019-01-17T01:44:12.549Z,4.90
2019-01-17T01:46:58.532Z,5.00
2019-01-17T01:49:43.503Z,5.20
2019-01-17T01:52:25.904Z,5.20
2019-01-17T01:54:54.693Z,5.20
2019-01-17T01:57:23.976Z,5.30
2019-01-17T01:59:52.793Z,5.40
2019-01-17T02:02:21.645Z,5.40
2019-01-17T02:04:50.445Z,5.40
2019-01-17T02:07:19.234Z,5.50
2019-01-17T02:09:48.092Z,5.50
2019-01-17T02:12:16.934Z,5.50
2019-01-17T02:14:45.802Z,5.50
2019-01-17T02:17:14.932Z,5.50
2019-01-17T02:19:43.720Z,5.50
2019-01-17T02:22:12.494Z,5.60
2019-01-17T02:24:41.592Z,5.60
2019-01-17T02:27:10.488Z,5.60
2019-01-17T02:29:39.362Z,5.60
2019-01-17T02:32:08.192Z,5.60
2019-01-17T02:34:37.048Z,5.50
2019-01-17T02:37:05.990Z,5.40
2019-01-17T02:39:34.921Z,5.40
2019-01-17T02:42:03.850Z,5.40
2019-01-17T02:44:32.779Z,5.40
2019-01-17T02:47:01.549Z,5.40
2019-01-17T02:49:30.669Z,5.40
2019-01-17T02:51:59.437Z,5.40
2019-01-17T02:54:28.224Z,5.40
2019-01-17T02:56:57.009Z,5.30
2019-01-17T02:59:25.887Z,5.30
2019-01-17T03:01:54.755Z,5.30
2019-01-17T03:04:23.677Z,5.40
2019-01-17T03:06:52.541Z,5.40
2019-01-17T03:09:21.344Z,5.40
2019-01-17T03:11:50.268Z,5.40
2019-01-17T03:14:19.059Z,5.20
2019-01-17T03:16:48.082Z,5.20
2019-01-17T03:19:16.858Z,5.20
2019-01-17T03:21:45.642Z,5.20
2019-01-17T03:24:14.484Z,5.20
2019-01-17T03:26:43.326Z,5.10
2019-01-17T03:29:12.098Z,5.10
2019-01-17T03:31:40.949Z,5.20
2019-01-17T03:34:09.791Z,5.10
2019-01-17T03:36:38.578Z,5.20
2019-01-17T03:39:08.361Z,5.20
2019-01-17T03:41:37.466Z,5.20
2019-01-17T03:44:06.397Z,5.30
2019-01-17T03:46:35.255Z,5.30
2019-01-17T03:49:04.425Z,5.30
2019-01-17T03:51:33.297Z,5.30
2019-01-17T03:54:02.158Z,5.30
2019-01-17T03:56:31.013Z,5.30
2019-01-17T03:58:59.925Z,5.30
2019-01-17T04:01:28.775Z,5.40
2019-01-17T04:03:57.632Z,5.40
2019-01-17T04:06:26.500Z,5.40
2019-01-17T04:08:55.533Z,5.50
2019-01-17T04:11:24.405Z,5.50
2019-01-17T04:13:53.177Z,5.50
2019-01-17T04:16:22.037Z,5.50
2019-01-17T04:18:51.074Z,5.50
2019-01-17T04:21:19.881Z,5.50
2019-01-17T04:23:48.701Z,5.50
2019-01-17T04:26:17.519Z,5.40
2019-01-17T04:28:46.289Z,5.40
2019-01-17T04:31:15.148Z,5.30
2019-01-17T04:33:43.936Z,5.30
2019-01-17T04:36:12.718Z,5.20
2019-01-17T04:38:41.501Z,5.10
2019-01-17T04:41:10.294Z,5.20
2019-01-17T04:43:39.071Z,5.20
2019-01-17T04:46:07.848Z,5.20
2019-01-17T04:48:36.621Z,5.10
2019-01-17T04:51:05.409Z,5.00
2019-01-17T04:53:34.188Z,5.00
2019-01-17T04:56:02.977Z,5.00
2019-01-17T04:58:31.754Z,5.00
2019-01-17T05:01:00.554Z,5.00
2019-01-17T05:03:29.481Z,5.00
2019-01-17T05:05:58.274Z,5.10
2019-01-17T05:08:27.061Z,5.10
2019-01-17T05:10:56.086Z,5.20
2019-01-17T05:13:24.857Z,5.30
2019-01-17T05:15:53.646Z,5.30
2019-01-17T05:18:22.430Z,5.40
2019-01-17T05:20:51.449Z,5.50
2019-01-17T05:23:20.223Z,5.50
2019-01-17T05:25:48.997Z,5.50
2019-01-17T05:28:18.045Z,5.60
2019-01-17T05:30:46.832Z,5.60
2019-01-17T05:33:15.623Z,5.60
2019-01-17T05:35:44.396Z,5.60
2019-01-17T05:38:13.181Z,5.60
2019-01-17T05:40:41.961Z,5.50
2019-01-17T05:43:10.731Z,5.50
2019-01-17T05:45:39.504Z,5.50
2019-01-17T05:48:08.439Z,5.60
2019-01-17T05:50:37.322Z,5.60
2019-01-17T05:53:06.177Z,5.70
2019-01-17T05:55:35.193Z,5.80
2019-01-17T05:58:03.986Z,5.80
2019-01-17T06:00:32.774Z,5.90
2019-01-17T06:03:01.552Z,6.00
2019-01-17T06:05:30.567Z,6.10
2019-01-17T06:08:01.131Z,6.10
2019-01-17T06:10:29.889Z,6.20
2019-01-17T06:12:58.924Z,6.20
2019-01-17T06:15:28.188Z,6.20
2019-01-17T06:17:56.968Z,6.20
2019-01-17T06:20:25.808Z,6.20
2019-01-17T06:22:54.589Z,6.20
2019-01-17T06:25:27.944Z,6.30
2019-01-17T06:27:53.943Z,6.30
2019-01-17T06:30:22.874Z,6.30
2019-01-17T06:32:51.795Z,6.30
2019-01-17T06:35:20.641Z,6.30
2019-01-17T06:37:49.487Z,6.40
2019-01-17T06:40:24.538Z,6.30
2019-01-17T06:42:53.409Z,6.30
2019-01-17T06:45:22.180Z,6.30
2019-01-17T06:47:51.037Z,6.40
2019-01-17T06:50:19.884Z,6.40
2019-01-17T06:52:48.748Z,6.40
2019-01-17T06:55:17.663Z,6.40
2019-01-17T06:57:46.673Z,6.40
2019-01-17T07:00:16.360Z,6.40
2019-01-17T07:02:45.282Z,6.40
2019-01-17T07:05:14.365Z,6.30
2019-01-17T07:07:43.446Z,6.30
2019-01-17T07:10:14.649Z,6.30
2019-01-17T07:12:43.429Z,6.30
2019-01-17T07:15:12.384Z,6.30
2019-01-17T07:17:41.544Z,6.30
2019-01-17T07:20:12.075Z,6.30
2019-01-17T07:22:40.948Z,6.20
2019-01-17T07:25:10.030Z,6.20
2019-01-17T07:27:38.893Z,6.20
2019-01-17T07:30:11.526Z,6.20
2019-01-17T07:32:40.380Z,6.20
2019-01-17T07:35:09.657Z,6.20
2019-01-17T07:37:38.520Z,6.10
2019-01-17T07:40:07.990Z,6.20
2019-01-17T07:42:36.837Z,6.10
2019-01-17T07:45:08.664Z,6.10
2019-01-17T07:47:37.530Z,6.10
2019-01-17T07:50:07.325Z,6.10
2019-01-17T07:52:36.519Z,6.20
2019-01-17T07:55:06.413Z,6.10
2019-01-17T07:57:35.332Z,6.10
2019-01-17T08:00:05.716Z,6.20
2019-01-17T08:02:34.557Z,6.20
2019-01-17T08:05:03.405Z,6.20
2019-01-17T08:07:32.175Z,6.30
2019-01-17T08:10:00.945Z,6.30
2019-01-17T08:12:29.786Z,6.30
2019-01-17T08:14:58.583Z,6.30
2019-01-17T08:17:27.375Z,6.40
2019-01-17T08:19:56.397Z,6.40
2019-01-17T08:22:25.181Z,6.40
2019-01-17T08:24:53.955Z,6.40
2019-01-17T08:27:22.743Z,6.40
2019-01-17T08:29:51.512Z,6.40
2019-01-17T08:32:20.689Z,6.40
2019-01-17T08:34:49.544Z,6.40
2019-01-17T08:37:18.324Z,6.50
2019-01-17T08:39:47.415Z,6.50
2019-01-17T08:42:16.291Z,6.40
2019-01-17T08:44:45.064Z,6.40
2019-01-17T08:47:13.825Z,6.30
2019-01-17T08:49:42.693Z,6.20
2019-01-17T08:52:11.790Z,6.10
2019-01-17T08:54:40.639Z,6.00
2019-01-17T08:57:09.703Z,6.00
2019-01-17T08:59:38.493Z,5.90
2019-01-17T09:02:07.245Z,5.90
2019-01-17T09:04:36.027Z,5.90
2019-01-17T09:07:04.932Z,5.90
2019-01-17T09:09:33.708Z,6.00
2019-01-17T09:12:02.797Z,6.00
2019-01-17T09:14:31.576Z,6.00
2019-01-17T09:17:00.425Z,6.10
2019-01-17T09:19:29.301Z,6.10
2019-01-17T09:21:58.064Z,6.20
2019-01-17T09:24:26.847Z,6.30
2019-01-17T09:26:55.620Z,6.30
2019-01-17T09:29:24.401Z,6.40
2019-01-17T09:31:53.429Z,6.40
2019-01-17T09:34:22.533Z,6.50
2019-01-17T09:36:51.313Z,6.60
2019-01-17T09:39:20.219Z,6.50
2019-01-17T09:41:48.989Z,6.40
2019-01-17T09:44:17.834Z,6.40
2019-01-17T09:46:46.853Z,6.40
2019-01-17T09:49:15.634Z,6.40
2019-01-17T09:51:44.486Z,6.40
2019-01-17T09:54:13.252Z,6.40
2019-01-17T09:56:42.109Z,6.40
2019-01-17T09:59:11.420Z,6.50
2019-01-17T10:01:40.307Z,6.50
2019-01-17T10:04:09.076Z,6.50
2019-01-17T10:06:38.323Z,6.50
2019-01-17T10:09:08.025Z,6.60
2019-01-17T10:11:36.884Z,6.60
2019-01-17T10:14:05.725Z,6.60
2019-01-17T10:16:45.167Z,6.60
2019-01-17T10:19:42.896Z,6.50
2019-01-17T10:22:26.308Z,6.50
2019-01-17T10:25:09.563Z,6.40
2019-01-17T10:28:14.815Z,6.40
2019-01-17T10:31:12.621Z,6.40
2019-01-17T10:34:01.405Z,6.50
2019-01-17T10:37:13.565Z,6.50
2019-01-17T10:40:20.420Z,6.50
2019-01-17T10:43:33.264Z,6.60
2019-01-17T10:46:38.161Z,6.70
2019-01-17T10:49:17.524Z,6.80
2019-01-17T10:52:13.053Z,6.80
2019-01-17T10:55:15.396Z,6.90
2019-01-17T10:58:29.112Z,6.70
2019-01-17T11:01:23.457Z,6.70
2019-01-17T11:04:29.387Z,6.70
2019-01-17T11:07:30.332Z,6.70
2019-01-17T11:10:40.272Z,6.90
2019-01-17T11:13:40.713Z,6.90
2019-01-17T11:16:29.067Z,6.80
2019-01-17T11:19:37.817Z,7.00
2019-01-17T11:22:31.652Z,7.10
2019-01-17T11:25:33.113Z,7.20
2019-01-17T11:28:32.413Z,7.30
2019-01-17T11:31:41.643Z,7.40
2019-01-17T11:34:46.237Z,7.40
2019-01-17T11:38:00.313Z,7.30
2019-01-17T11:41:04.852Z,7.40
2019-01-17T11:44:04.226Z,7.40
2019-01-17T11:46:46.653Z,7.30
2019-01-17T11:49:56.355Z,7.40
2019-01-17T11:52:56.846Z,7.50
2019-01-17T11:55:52.198Z,7.60
2019-01-17T11:58:33.004Z,7.60
2019-01-17T12:01:46.328Z,7.40
2019-01-17T12:04:36.443Z,7.40
2019-01-17T12:07:16.652Z,7.30
2019-01-17T12:09:45.437Z,7.30
2019-01-17T12:12:18.646Z,7.20
2019-01-17T12:14:47.614Z,7.30
2019-01-17T12:17:16.389Z,7.20
2019-01-17T12:19:45.179Z,7.20
2019-01-17T12:22:14.046Z,7.20
2019-01-17T12:24:43.316Z,6.90
2019-01-17T12:27:12.242Z,6.80
2019-01-17T12:29:41.374Z,6.80
2019-01-17T12:32:10.216Z,6.80
2019-01-17T12:34:39.242Z,6.80
2019-01-17T12:37:08.336Z,6.80
2019-01-17T12:39:37.852Z,6.80
2019-01-17T12:42:06.946Z,6.80
2019-01-17T12:44:36.012Z,6.80
2019-01-17T12:47:04.968Z,6.80
2019-01-17T12:49:33.833Z,6.70
2019-01-17T12:52:02.921Z,6.70
2019-01-17T12:54:31.724Z,6.70
2019-01-17T12:57:00.830Z,6.70
2019-01-17T12:59:29.625Z,6.60
2019-01-17T13:01:58.395Z,6.60
2019-01-17T13:04:27.300Z,6.70
2019-01-17T13:06:56.081Z,6.80
2019-01-17T13:09:25.176Z,6.80
2019-01-17T13:11:54.196Z,6.90
2019-01-17T13:14:22.985Z,6.80
2019-01-17T13:16:51.830Z,6.60
2019-01-17T13:19:20.612Z,6.40
2019-01-17T13:21:49.616Z,6.30
2019-01-17T13:24:18.798Z,6.00
2019-01-17T13:26:47.625Z,5.80
2019-01-17T13:29:16.502Z,5.70
2019-01-17T13:31:45.661Z,5.60
2019-01-17T13:34:14.453Z,5.50
2019-01-17T13:36:43.233Z,5.30
2019-01-17T13:39:12.012Z,5.20
2019-01-17T13:41:40.864Z,5.10
2019-01-17T13:44:09.993Z,5.10
2019-01-17T13:46:38.836Z,5.10
2019-01-17T13:49:07.626Z,5.60
2019-01-17T13:51:36.412Z,6.20
2019-01-17T13:54:05.510Z,6.60
2019-01-17T13:56:34.292Z,6.70
2019-01-17T13:59:03.184Z,7.00
2019-01-17T14:01:31.974Z,7.10
2019-01-17T14:04:00.745Z,6.90
2019-01-17T14:06:29.679Z,7.00
2019-01-17T14:08:58.518Z,6.60
2019-01-17T14:11:27.314Z,6.30
2019-01-17T14:13:56.112Z,6.00
2019-01-17T14:16:24.889Z,5.90
2019-01-17T14:18:53.655Z,5.90
2019-01-17T14:21:25.558Z,6.00
2019-01-17T14:23:53.648Z,5.90
2019-01-17T14:26:22.505Z,5.90
2019-01-17T14:28:51.420Z,5.90
2019-01-17T14:31:20.573Z,5.70
2019-01-17T14:33:49.354Z,5.80
2019-01-17T14:36:18.217Z,5.80
2019-01-17T14:38:47.220Z,5.70
2019-01-17T14:41:16.009Z,5.70
2019-01-17T14:43:44.798Z,5.70
2019-01-17T14:46:13.645Z,5.60
2019-01-17T14:48:42.656Z,5.60
2019-01-17T14:51:11.506Z,5.50
2019-01-17T14:53:40.288Z,5.50
2019-01-17T14:56:09.137Z,5.50
2019-01-17T14:58:38.227Z,5.50
2019-01-17T15:01:07.085Z,5.40
2019-01-17T15:03:36.212Z,5.30
2019-01-17T15:06:05.280Z,5.30
2019-01-17T15:08:34.060Z,5.20
2019-01-17T15:11:02.844Z,5.20
2019-01-17T15:13:31.694Z,5.10
2019-01-17T15:16:00.745Z,5.00
2019-01-17T15:18:29.600Z,5.00
2019-01-17T15:20:58.389Z,4.90
2019-01-17T15:23:27.242Z,4.90
2019-01-17T15:25:56.123Z,4.90
2019-01-17T15:28:25.062Z,4.80
2019-01-17T15:30:53.864Z,4.80
2019-01-17T15:33:22.768Z,4.70
2019-01-17T15:35:51.569Z,4.60
2019-01-17T15:38:20.369Z,4.50
2019-01-17T15:40:49.191Z,4.40
2019-01-17T15:43:18.032Z,4.40
2019-01-17T15:45:47.115Z,4.40
2019-01-17T15:48:16.079Z,4.30
2019-01-17T15:50:44.922Z,4.30
2019-01-17T15:53:14.001Z,4.40
2019-01-17T15:55:42.785Z,4.40
2019-01-17T15:58:11.597Z,4.50
2019-01-17T16:00:40.555Z,4.50
2019-01-17T16:03:31.842Z,4.60
2019-01-17T16:06:00.644Z,4.60
2019-01-17T16:08:29.505Z,4.50
2019-01-17T16:10:58.325Z,4.50
2019-01-17T16:13:27.239Z,4.50
2019-01-17T16:15:56.356Z,4.50
2019-01-17T16:18:25.241Z,4.40
2019-01-17T16:20:54.166Z,4.30
2019-01-17T16:23:23.024Z,4.20
2019-01-17T16:25:51.875Z,4.20
2019-01-17T16:28:20.668Z,4.10
2019-01-17T16:30:49.450Z,4.10
2019-01-17T16:33:18.246Z,4.00
2019-01-17T16:35:47.281Z,3.90
2019-01-17T16:38:16.408Z,3.90
2019-01-17T16:40:45.434Z,3.80
2019-01-17T16:43:14.613Z,3.80
2019-01-17T16:45:43.633Z,3.70
2019-01-17T16:48:12.517Z,3.70
2019-01-17T16:50:41.450Z,3.70
2019-01-17T16:53:10.228Z,3.60
2019-01-17T16:55:38.993Z,3.60
2019-01-17T16:58:07.878Z,3.60
2019-01-17T17:00:46.949Z,3.60
2019-01-17T17:03:15.841Z,3.70
2019-01-17T17:05:46.125Z,3.80
2019-01-17T17:08:15.524Z,3.90
2019-01-17T17:10:44.305Z,4.00
2019-01-17T17:13:13.302Z,4.00
2019-01-17T17:15:42.114Z,4.00
2019-01-17T17:18:11.265Z,4.00
2019-01-17T17:20:40.483Z,4.00
2019-01-17T17:23:09.404Z,3.90
2019-01-17T17:25:38.345Z,3.90
2019-01-17T17:28:07.256Z,3.90
2019-01-17T17:30:36.184Z,3.80
2019-01-17T17:33:06.525Z,3.80
2019-01-17T17:35:35.323Z,3.70
2019-01-17T17:38:04.253Z,3.70
2019-01-17T17:40:33.185Z,3.60
2019-01-17T17:43:02.932Z,3.50
2019-01-17T17:45:31.818Z,3.30
2019-01-17T17:48:02.044Z,3.10
2019-01-17T17:50:31.125Z,3.00
2019-01-17T17:53:00.142Z,2.90
2019-01-17T17:55:28.996Z,2.80
2019-01-17T17:58:02.187Z,2.70
2019-01-17T18:00:39.645Z,2.70
2019-01-17T18:03:08.537Z,2.60
2019-01-17T18:05:37.501Z,2.60
2019-01-17T18:08:06.615Z,2.60
2019-01-17T18:10:35.493Z,2.50
2019-01-17T18:13:04.432Z,2.50
2019-01-17T18:15:33.372Z,2.50
2019-01-17T18:18:02.164Z,2.50
2019-01-17T18:20:31.012Z,2.50
2019-01-17T18:23:00.053Z,2.50
2019-01-17T18:25:29.163Z,2.40
2019-01-17T18:27:58.245Z,2.30
2019-01-17T18:30:27.160Z,2.30
2019-01-17T18:32:56.089Z,2.30
2019-01-17T18:35:24.851Z,2.30
2019-01-17T18:37:53.625Z,2.20
2019-01-17T18:40:22.678Z,2.20
2019-01-17T18:42:51.668Z,2.20
2019-01-17T18:45:21.384Z,2.30
2019-01-17T18:47:50.340Z,2.20
2019-01-17T18:50:21.529Z,2.30
2019-01-17T18:52:50.379Z,2.30
2019-01-17T18:55:19.297Z,2.30
2019-01-17T18:57:48.237Z,2.30
2019-01-17T19:00:28.183Z,2.30
2019-01-17T19:02:57.377Z,2.20
2019-01-17T19:05:26.585Z,2.10
2019-01-17T19:07:55.958Z,2.10
2019-01-17T19:10:24.904Z,2.00
2019-01-17T19:12:54.111Z,1.90
2019-01-17T19:15:28.374Z,1.90
2019-01-17T19:17:57.406Z,1.70
2019-01-17T19:20:26.493Z,1.60
2019-01-17T19:22:55.353Z,1.50
2019-01-17T19:25:24.280Z,1.50
2019-01-17T19:27:53.413Z,1.50
2019-01-17T19:30:24.164Z,1.50
2019-01-17T19:32:55.457Z,1.50
2019-01-17T19:35:24.450Z,1.50
2019-01-17T19:37:53.310Z,1.60
2019-01-17T19:40:23.796Z,1.60
2019-01-17T19:42:52.738Z,1.60
2019-01-17T19:45:21.697Z,1.60
2019-01-17T19:47:50.709Z,1.60
2019-01-17T19:50:23.250Z,1.60
2019-01-17T19:52:52.441Z,1.70
2019-01-17T19:55:21.374Z,1.80
2019-01-17T19:58:02.541Z,1.90
2019-01-17T20:00:31.736Z,2.00
2019-01-17T20:03:00.584Z,2.10
2019-01-17T20:08:41.211Z,2.10
2019-01-17T20:11:11.684Z,2.10
2019-01-17T20:13:40.585Z,2.00
2019-01-17T20:16:10.042Z,1.90
2019-01-17T20:18:40.430Z,1.80
2019-01-17T20:21:09.878Z,1.80
2019-01-17T20:23:39.055Z,1.70
2019-01-17T20:26:07.989Z,1.60
2019-01-17T20:28:36.896Z,1.60
2019-01-17T20:31:10.651Z,1.60
2019-01-17T20:33:39.932Z,1.60
2019-01-17T20:36:09.170Z,1.60
2019-01-17T20:38:41.184Z,1.70
2019-01-17T20:41:09.980Z,1.70
2019-01-17T20:43:38.776Z,1.70
2019-01-17T20:46:07.773Z,1.70
2019-01-17T20:48:41.073Z,1.70
2019-01-17T20:51:10.330Z,1.80
2019-01-17T20:53:39.167Z,1.90
2019-01-17T20:56:08.092Z,1.90
2019-01-17T20:58:42.262Z,1.90
2019-01-17T21:01:42.351Z,1.90
2019-01-17T21:04:11.951Z,1.90
2019-01-17T21:06:46.738Z,1.90
2019-01-17T21:09:42.637Z,1.90
2019-01-17T21:11:51.333Z,1.80
2019-01-17T21:14:20.411Z,1.80
2019-01-17T21:16:49.352Z,1.70
2019-01-17T21:19:18.665Z,1.40
2019-01-17T21:21:47.539Z,1.10
2019-01-17T21:24:16.565Z,0.90
2019-01-17T21:26:45.485Z,0.80
2019-01-17T21:29:14.283Z,0.80
2019-01-17T21:31:43.077Z,0.80
2019-01-17T21:34:12.004Z,0.80
2019-01-17T21:36:40.872Z,0.90
2019-01-17T21:39:09.733Z,0.90
2019-01-17T21:41:38.527Z,0.90
2019-01-17T21:44:07.390Z,0.90
2019-01-17T21:46:36.170Z,0.90
2019-01-17T21:49:05.160Z,0.90
2019-01-17T21:51:34.221Z,0.90
2019-01-17T21:54:03.510Z,0.90
2019-01-17T21:56:32.426Z,0.90
2019-01-17T21:59:01.281Z,0.80
2019-01-17T22:01:30.192Z,0.80
2019-01-17T22:03:58.968Z,0.80
2019-01-17T22:06:27.840Z,0.70
2019-01-17T22:08:56.689Z,0.70
2019-01-17T22:11:25.799Z,0.70
2019-01-17T22:13:54.818Z,0.60
2019-01-17T22:16:23.952Z,0.60
2019-01-17T22:18:52.797Z,0.60
2019-01-17T22:21:21.898Z,0.60
2019-01-17T22:23:50.650Z,0.60
2019-01-17T22:26:21.136Z,0.60
2019-01-17T22:28:50.060Z,0.50
2019-01-17T22:31:19.099Z,0.60
2019-01-17T22:33:47.887Z,0.50
2019-01-17T22:36:16.684Z,0.50
2019-01-17T22:38:45.545Z,0.40
2019-01-17T22:41:14.368Z,0.40
2019-01-17T22:43:43.136Z,0.30
2019-01-17T22:46:12.197Z,0.30
2019-01-17T22:48:40.959Z,0.20
2019-01-17T22:51:10.854Z,0.20
2019-01-17T22:53:40.041Z,0.20
2019-01-17T22:56:08.823Z,0.20
2019-01-17T22:58:37.592Z,0.10
2019-01-17T23:01:22.988Z,0.10
2019-01-17T23:03:53.858Z,0.00
2019-01-17T23:06:22.642Z,0.00
2019-01-17T23:08:51.486Z,0.00
2019-01-17T23:11:20.517Z,-0.10
2019-01-17T23:13:49.369Z,-0.10
2019-01-17T23:16:18.469Z,-0.10
2019-01-17T23:18:47.505Z,0.00
2019-01-17T23:21:16.424Z,0.00
2019-01-17T23:23:45.180Z,0.00
2019-01-17T23:26:13.960Z,0.00
2019-01-17T23:28:42.836Z,-0.10
2019-01-17T23:31:11.771Z,-0.10
2019-01-17T23:33:40.573Z,-0.10
2019-01-17T23:36:09.561Z,-0.20
2019-01-17T23:38:38.418Z,-0.30
2019-01-17T23:41:07.449Z,-0.30
2019-01-17T23:43:36.297Z,-0.40
2019-01-17T23:46:05.232Z,-0.40
2019-01-17T23:48:34.108Z,-0.40
2019-01-17T23:51:02.906Z,-0.50
2019-01-17T23:53:31.788Z,-0.50
2019-01-17T23:56:00.649Z,-0.60
2019-01-17T23:58:29.515Z,-0.60
